Time;durP1;ratioP1;P1;durP2;ratioP2;P2;SDS_P1;SDS_P2;PMS_P1;PMS_P2;Temp;Humidity;BMP_temperature;BMP_pressure;BME280_temperature;BME280_humidity;BME280_pressure;Samples;Min_cycle;Max_cycle;Signal;HPM_P1;HPM_P2
2023/07/29 00:01:33;;;;;;;;;;;;;;;18.94;100.00;99238.55;105409;1260;72801;-61
2023/07/29 00:04:00;;;;;;;;;;;;;;;18.92;100.00;99241.45;104916;1262;61275;-62
2023/07/29 00:06:27;;;;;;;;;;;;;;;18.90;100.00;99240.94;105001;1260;61234;-60
2023/07/29 00:08:54;;;;;;;;;;;;;;;18.88;100.00;99243.03;105345;1262;74645;-61
2023/07/29 00:11:21;;;;;;;;;;;;;;;18.87;100.00;99244.62;105221;1260;67018;-62
2023/07/29 00:13:49;;;;;;;;;;;;;;;18.85;100.00;99245.98;104824;1260;72767;-63
2023/07/29 00:16:17;;;;;;;;;;;;;;;18.83;100.00;99244.20;104994;1260;62408;-62
2023/07/29 00:18:44;;;;;;;;;;;;;;;18.80;100.00;99243.23;105328;1262;61268;-68
2023/07/29 00:21:11;;;;;;;;;;;;;;;18.77;100.00;99243.54;105107;1259;75167;-73
2023/07/29 00:23:37;;;;;;;;;;;;;;;18.76;100.00;99247.70;105404;1260;67787;-62
2023/07/29 00:26:04;;;;;;;;;;;;;;;18.74;100.00;99248.02;104897;1261;71597;-62
2023/07/29 00:28:31;;;;;;;;;;;;;;;18.73;100.00;99248.55;105255;1263;61209;-64
2023/07/29 00:30:59;;;;;;;;;;;;;;;18.70;100.00;99250.55;104868;1260;61081;-74
2023/07/29 00:33:26;;;;;;;;;;;;;;;18.67;100.00;99248.02;105346;1262;74066;-62
2023/07/29 00:35:53;;;;;;;;;;;;;;;18.65;100.00;99254.63;104859;1265;67250;-62
2023/07/29 00:38:20;;;;;;;;;;;;;;;18.64;100.00;99254.48;104847;1260;71368;-64
2023/07/29 00:40:47;;;;;;;;;;;;;;;18.62;100.00;99258.98;105692;1262;61222;-73
2023/07/29 00:43:14;;;;;;;;;;;;;;;18.60;100.00;99252.71;105510;1260;61317;-63
2023/07/29 00:45:41;;;;;;;;;;;;;;;18.57;100.00;99249.23;105223;1264;74734;-61
2023/07/29 00:48:08;;;;;;;;;;;;;;;18.56;100.00;99252.28;104844;1260;67048;-61
2023/07/29 00:50:35;;;;;;;;;;;;;;;18.53;100.00;99250.59;105229;1260;73625;-74
2023/07/29 00:53:02;;;;;;;;;;;;;;;18.51;100.00;99250.84;105028;1265;61441;-71
2023/07/29 00:55:29;;;;;;;;;;;;;;;18.48;100.00;99252.27;105651;1260;61427;-63
2023/07/29 00:57:56;;;;;;;;;;;;;;;18.47;100.00;99246.81;104940;1259;74586;-62
2023/07/29 01:00:24;;;;;;;;;;;;;;;18.45;100.00;99250.30;104871;1260;67269;-63
2023/07/29 01:02:52;;;;;;;;;;;;;;;18.41;100.00;99247.16;105968;1264;72492;-62
2023/07/29 01:05:19;;;;;;;;;;;;;;;18.39;100.00;99253.02;105192;1260;61978;-61
2023/07/29 01:07:49;;;;;;;;;;;;;;;18.36;100.00;99250.20;105015;1259;61289;-63
2023/07/29 01:10:34;;;;;;;;;;;;;;;18.34;100.00;99249.84;104770;1259;73451;-63
2023/07/29 01:13:04;;;;;;;;;;;;;;;18.31;100.00;99251.04;104599;1262;65865;-65
2023/07/29 01:15:31;;;;;;;;;;;;;;;18.29;100.00;99258.36;104855;1260;72898;-60
2023/07/29 01:18:08;;;;;;;;;;;;;;;18.28;100.00;99259.95;104981;1261;61151;-61
2023/07/29 01:20:37;;;;;;;;;;;;;;;18.26;100.00;99259.30;105136;1260;61874;-72
2023/07/29 01:23:04;;;;;;;;;;;;;;;18.23;100.00;99259.45;104920;1260;73954;-60
2023/07/29 01:25:31;;;;;;;;;;;;;;;18.21;100.00;99265.03;104916;1259;66042;-62
2023/07/29 01:27:58;;;;;;;;;;;;;;;18.20;100.00;99265.34;104965;1261;71392;-59
2023/07/29 01:30:26;;;;;;;;;;;;;;;18.17;100.00;99264.86;105156;1260;61928;-60
2023/07/29 01:33:01;;;;;;;;;;;;;;;18.15;100.00;99267.38;105190;1260;61135;-60
2023/07/29 01:35:31;;;;;;;;;;;;;;;18.14;100.00;99266.15;104731;1265;74610;-67
2023/07/29 01:38:00;;;;;;;;;;;;;;;18.13;100.00;99274.11;104912;1260;67242;-62
2023/07/29 01:40:27;;;;;;;;;;;;;;;18.12;100.00;99279.07;104704;1266;71580;-61
2023/07/29 01:42:54;;;;;;;;;;;;;;;18.13;100.00;99281.81;104807;1261;62014;-62
2023/07/29 01:45:25;;;;;;;;;;;;;;;18.12;100.00;99287.14;104946;1258;61422;-61
2023/07/29 01:47:52;;;;;;;;;;;;;;;18.13;100.00;99287.03;104942;1260;72462;-61
2023/07/29 01:50:19;;;;;;;;;;;;;;;18.11;100.00;99290.36;105374;1259;67021;-72
2023/07/29 01:52:46;;;;;;;;;;;;;;;18.12;100.00;99294.16;105107;1262;71495;-62
2023/07/29 01:55:14;;;;;;;;;;;;;;;18.12;100.00;99295.84;104942;1264;61745;-60
2023/07/29 01:57:41;;;;;;;;;;;;;;;18.11;100.00;99302.13;105003;1262;61232;-59
2023/07/29 02:00:08;;;;;;;;;;;;;;;18.11;100.00;99302.02;105204;1258;75005;-72
2023/07/29 02:02:41;;;;;;;;;;;;;;;18.11;100.00;99310.05;104989;1259;67035;-60
2023/07/29 02:05:08;;;;;;;;;;;;;;;18.11;100.00;99307.61;105026;1260;72350;-60
2023/07/29 02:07:35;;;;;;;;;;;;;;;18.11;100.00;99306.88;105243;1262;61441;-60
2023/07/29 02:10:02;;;;;;;;;;;;;;;18.11;100.00;99308.45;105493;1260;61344;-72
2023/07/29 02:12:29;;;;;;;;;;;;;;;18.11;100.00;99308.91;105019;1261;74738;-61
2023/07/29 02:14:56;;;;;;;;;;;;;;;18.10;100.00;99309.65;105318;1260;66143;-61
2023/07/29 02:17:23;;;;;;;;;;;;;;;18.11;100.00;99313.63;105391;1260;71581;-60
2023/07/29 02:19:50;;;;;;;;;;;;;;;18.11;100.00;99316.73;105408;1260;61900;-64
2023/07/29 02:22:17;;;;;;;;;;;;;;;18.11;100.00;99316.85;104504;1260;61346;-61
2023/07/29 02:24:44;;;;;;;;;;;;;;;18.10;100.00;99318.77;104952;1260;74615;-60
2023/07/29 02:27:11;;;;;;;;;;;;;;;18.09;100.00;99313.39;104940;1260;67422;-59
2023/07/29 02:29:38;;;;;;;;;;;;;;;18.08;100.00;99316.48;104883;1260;74423;-61
2023/07/29 02:32:05;;;;;;;;;;;;;;;18.06;100.00;99316.27;105344;1259;62203;-61
2023/07/29 02:34:32;;;;;;;;;;;;;;;18.05;100.00;99320.65;104677;1260;61227;-60
2023/07/29 02:36:59;;;;;;;;;;;;;;;18.04;100.00;99325.13;105294;1261;74634;-60
2023/07/29 02:39:25;;;;;;;;;;;;;;;18.03;100.00;99323.16;105141;1262;67385;-61
2023/07/29 02:41:53;;;;;;;;;;;;;;;18.04;100.00;99326.28;105032;1263;72537;-72
2023/07/29 02:44:20;;;;;;;;;;;;;;;18.03;100.00;99333.39;105305;1263;61129;-60
2023/07/29 02:46:47;;;;;;;;;;;;;;;18.03;100.00;99333.66;105522;1260;61231;-61
2023/07/29 02:49:14;;;;;;;;;;;;;;;18.02;100.00;99331.59;105086;1265;74496;-61
2023/07/29 02:51:41;;;;;;;;;;;;;;;18.02;100.00;99333.96;105183;1264;217055;-73
2023/07/29 02:54:07;;;;;;;;;;;;;;;18.01;100.00;99333.17;105401;1259;72587;-72
2023/07/29 02:56:34;;;;;;;;;;;;;;;18.02;100.00;99336.13;104908;1262;61238;-60
2023/07/29 02:59:02;;;;;;;;;;;;;;;18.03;100.00;99337.66;104895;1263;61208;-60
2023/07/29 03:01:29;;;;;;;;;;;;;;;18.04;100.00;99341.64;105144;1263;74565;-61
2023/07/29 03:03:56;;;;;;;;;;;;;;;18.06;100.00;99341.27;105216;1260;67246;-72
2023/07/29 03:06:23;;;;;;;;;;;;;;;18.09;100.00;99346.73;104595;1262;71470;-60
2023/07/29 03:08:50;;;;;;;;;;;;;;;18.11;100.00;99348.06;105448;1265;61252;-60
2023/07/29 03:11:17;;;;;;;;;;;;;;;18.13;100.00;99344.38;105193;1260;61227;-60
2023/07/29 03:13:44;;;;;;;;;;;;;;;18.14;100.00;99348.28;105648;1262;74634;-68
2023/07/29 03:16:12;;;;;;;;;;;;;;;18.15;100.00;99356.20;105480;1265;67291;-60
2023/07/29 03:18:39;;;;;;;;;;;;;;;18.16;100.00;99353.84;105221;1262;71654;-60
2023/07/29 03:21:06;;;;;;;;;;;;;;;18.18;100.00;99352.21;105347;1259;61359;-60
2023/07/29 03:23:33;;;;;;;;;;;;;;;18.19;100.00;99355.75;104921;1259;61337;-60
2023/07/29 03:26:01;;;;;;;;;;;;;;;18.21;100.00;99362.30;104944;1262;75153;-74
2023/07/29 03:28:29;;;;;;;;;;;;;;;18.27;100.00;99361.08;105074;1262;66514;-61
2023/07/29 03:30:56;;;;;;;;;;;;;;;18.31;100.00;99367.33;105176;1262;71611;-59
2023/07/29 03:33:23;;;;;;;;;;;;;;;18.31;100.00;99369.82;105142;1262;61406;-59
2023/07/29 03:35:50;;;;;;;;;;;;;;;18.33;100.00;99374.52;104999;1260;61298;-72
2023/07/29 03:38:17;;;;;;;;;;;;;;;18.36;100.00;99374.42;104907;1259;73492;-59
2023/07/29 03:40:44;;;;;;;;;;;;;;;18.38;100.00;99368.85;105127;1260;67346;-61
2023/07/29 03:43:11;;;;;;;;;;;;;;;18.41;100.00;99370.39;105120;1261;71197;-59
2023/07/29 03:45:38;;;;;;;;;;;;;;;18.41;100.00;99363.06;104898;1258;62754;-59
2023/07/29 03:48:05;;;;;;;;;;;;;;;18.41;100.00;99369.12;105372;1259;61315;-72
2023/07/29 03:50:35;;;;;;;;;;;;;;;18.41;100.00;99372.23;104946;1262;75263;-60
2023/07/29 03:53:03;;;;;;;;;;;;;;;18.40;100.00;99369.70;105144;1261;67081;-60
2023/07/29 03:55:30;;;;;;;;;;;;;;;18.36;100.00;99373.90;105004;1260;71485;-59
2023/07/29 03:57:58;;;;;;;;;;;;;;;18.35;100.00;99378.33;105532;1261;62047;-71
2023/07/29 04:00:24;;;;;;;;;;;;;;;18.40;100.00;99374.45;105124;1260;61353;-60
2023/07/29 04:02:51;;;;;;;;;;;;;;;18.44;100.00;99377.63;104996;1262;75123;-60
2023/07/29 04:05:19;;;;;;;;;;;;;;;18.45;100.00;99376.77;105190;1260;67594;-62
2023/07/29 04:07:46;;;;;;;;;;;;;;;18.48;100.00;99384.52;104875;1262;72744;-60
2023/07/29 04:10:13;;;;;;;;;;;;;;;18.53;100.00;99385.55;105104;1260;62046;-72
2023/07/29 04:12:39;;;;;;;;;;;;;;;18.60;100.00;99387.02;104871;1262;61339;-59
2023/07/29 04:15:07;;;;;;;;;;;;;;;18.62;100.00;99391.19;105365;1262;74666;-61
2023/07/29 04:17:34;;;;;;;;;;;;;;;18.67;100.00;99399.77;104963;1260;67317;-63
2023/07/29 04:20:03;;;;;;;;;;;;;;;18.74;100.00;99401.05;104889;1263;72786;-63
2023/07/29 04:22:33;;;;;;;;;;;;;;;18.83;100.00;99400.71;104543;1262;62263;-62
2023/07/29 04:25:00;;;;;;;;;;;;;;;18.94;100.00;99395.99;105094;1259;59965;-60
2023/07/29 04:27:27;;;;;;;;;;;;;;;19.16;100.00;99400.84;104979;1262;75450;-61
2023/07/29 04:29:54;;;;;;;;;;;;;;;19.56;100.00;99401.55;104947;1260;67262;-62
2023/07/29 04:32:21;;;;;;;;;;;;;;;20.09;100.00;99399.65;105397;1258;72820;-73
2023/07/29 04:34:48;;;;;;;;;;;;;;;20.67;100.00;99392.88;105334;1260;61267;-61
2023/07/29 04:37:15;;;;;;;;;;;;;;;21.37;100.00;99385.29;104980;1262;61260;-63
2023/07/29 04:39:41;;;;;;;;;;;;;;;21.97;100.00;99371.84;104985;1261;74552;-62
2023/07/29 04:42:08;;;;;;;;;;;;;;;22.52;100.00;99363.55;105029;1260;66987;-66
2023/07/29 04:44:35;;;;;;;;;;;;;;;23.26;100.00;99352.59;105029;1273;72788;-62
2023/07/29 04:47:02;;;;;;;;;;;;;;;24.10;100.00;99339.04;104929;1258;61355;-62
2023/07/29 04:49:29;;;;;;;;;;;;;;;25.04;100.00;99328.31;104956;1263;61161;-62
2023/07/29 04:51:56;;;;;;;;;;;;;;;26.13;100.00;99318.22;105025;1262;72693;-62
2023/07/29 04:54:22;;;;;;;;;;;;;;;27.07;100.00;99305.70;105463;1265;65890;-65
2023/07/29 04:56:49;;;;;;;;;;;;;;;27.75;100.00;99305.36;104568;1265;70786;-61
2023/07/29 04:59:17;;;;;;;;;;;;;;;28.30;100.00;99313.78;104994;1263;61302;-64
2023/07/29 05:01:44;;;;;;;;;;;;;;;28.80;100.00;99312.53;106029;1260;61135;-64
2023/07/29 05:04:11;;;;;;;;;;;;;;;29.17;100.00;99317.35;104905;1261;73274;-65
2023/07/29 05:06:38;;;;;;;;;;;;;;;29.56;100.00;99318.77;105192;1263;65928;-73
2023/07/29 05:09:12;;;;;;;;;;;;;;;29.92;100.00;99318.52;104950;1263;72986;-64
2023/07/29 05:11:39;;;;;;;;;;;;;;;30.28;100.00;99317.20;104891;1261;61271;-66
2023/07/29 05:14:07;;;;;;;;;;;;;;;30.50;100.00;99321.64;105489;1266;61225;-66
2023/07/29 05:16:33;;;;;;;;;;;;;;;30.73;100.00;99321.02;104654;1260;73949;-66
2023/07/29 05:19:02;;;;;;;;;;;;;;;30.84;100.00;99324.43;105105;1263;66953;-66
2023/07/29 05:21:29;;;;;;;;;;;;;;;30.97;99.94;99325.02;105199;1267;72175;-68
2023/07/29 05:23:56;;;;;;;;;;;;;;;31.13;97.45;99332.16;105037;1261;61644;-74
2023/07/29 05:26:23;;;;;;;;;;;;;;;31.24;96.37;99333.37;104880;1259;61165;-66
2023/07/29 05:28:50;;;;;;;;;;;;;;;31.45;93.80;99339.11;104879;1264;75122;-69
2023/07/29 05:31:17;;;;;;;;;;;;;;;31.75;89.40;99337.17;105017;1262;61346;-67
2023/07/29 05:33:44;;;;;;;;;;;;;;;31.93;80.49;99338.52;105398;1261;70828;-66
2023/07/29 05:36:11;;;;;;;;;;;;;;;31.94;77.48;99338.14;105394;1258;61506;-68
2023/07/29 05:38:38;;;;;;;;;;;;;;;31.89;76.81;99339.48;104899;1266;61331;-73
2023/07/29 05:41:05;;;;;;;;;;;;;;;31.96;77.74;99344.04;104564;1269;74932;-66
2023/07/29 05:43:32;;;;;;;;;;;;;;;32.17;74.24;99345.62;105350;1262;65927;-66
2023/07/29 05:45:58;;;;;;;;;;;;;;;32.39;72.15;99350.38;104748;1266;71296;-67
2023/07/29 05:48:25;;;;;;;;;;;;;;;32.62;68.48;99353.60;104621;1258;61275;-73
2023/07/29 05:50:52;;;;;;;;;;;;;;;32.78;64.01;99356.61;105180;1266;61207;-72
2023/07/29 05:53:19;;;;;;;;;;;;;;;32.84;61.91;99361.69;104993;1262;67240;-67
2023/07/29 05:55:46;;;;;;;;;;;;;;;32.78;56.83;99354.08;105011;1261;66986;-65
2023/07/29 05:58:13;;;;;;;;;;;;;;;32.57;58.51;99357.49;105066;1262;63963;-64
2023/07/29 06:00:40;;;;;;;;;;;;;;;32.48;60.45;99358.69;104984;1263;61272;-65
2023/07/29 06:03:07;;;;;;;;;;;;;;;32.53;59.59;99362.42;105143;1274;61292;-69
2023/07/29 06:05:35;;;;;;;;;;;;;;;32.48;60.26;99363.61;105234;1260;66517;-65
2023/07/29 06:08:02;;;;;;;;;;;;;;;32.50;60.57;99364.05;105073;1262;61349;-64
2023/07/29 06:10:29;;;;;;;;;;;;;;;32.63;58.18;99364.34;105025;1265;71855;-70
2023/07/29 06:12:56;;;;;;;;;;;;;;;32.79;59.99;99365.15;105339;1265;61359;-66
2023/07/29 06:15:23;;;;;;;;;;;;;;;33.13;56.90;99367.55;105554;1260;61279;-68
2023/07/29 06:17:50;;;;;;;;;;;;;;;33.40;54.78;99371.08;105234;1262;64818;-67
2023/07/29 06:20:17;;;;;;;;;;;;;;;33.50;51.27;99373.76;104988;1263;61310;-68
2023/07/29 06:22:44;;;;;;;;;;;;;;;33.48;51.77;99376.73;105506;1264;64130;-67
2023/07/29 06:25:11;;;;;;;;;;;;;;;33.51;50.62;99372.94;104874;1263;61529;-67
2023/07/29 06:27:38;;;;;;;;;;;;;;;33.35;47.42;99372.37;105130;1262;61346;-69
2023/07/29 06:30:05;;;;;;;;;;;;;;;32.92;48.89;99372.02;104929;1262;66471;-66
2023/07/29 06:32:32;;;;;;;;;;;;;;;32.66;52.01;99372.41;105458;1263;61244;-69
2023/07/29 06:34:59;;;;;;;;;;;;;;;32.56;52.90;99373.51;105038;1262;71265;-66
2023/07/29 06:37:26;;;;;;;;;;;;;;;32.53;55.00;99376.45;104906;1262;61273;-66
2023/07/29 06:39:52;;;;;;;;;;;;;;;32.40;54.25;99370.81;105281;1261;61264;-66
2023/07/29 06:42:19;;;;;;;;;;;;;;;32.07;55.89;99380.27;105740;1260;65951;-69
2023/07/29 06:44:46;;;;;;;;;;;;;;;31.64;56.87;99381.10;105404;1265;59972;-67
2023/07/29 06:47:13;;;;;;;;;;;;;;;31.37;62.80;99380.46;105588;1262;64142;-66
2023/07/29 06:49:40;;;;;;;;;;;;;;;31.41;65.50;99378.02;105243;1262;60201;-68
2023/07/29 06:52:07;;;;;;;;;;;;;;;31.52;64.79;99383.00;105501;1261;61211;-67
2023/07/29 06:54:33;;;;;;;;;;;;;;;31.47;61.73;99380.34;104850;1258;64838;-67
2023/07/29 06:57:00;;;;;;;;;;;;;;;31.18;59.90;99384.27;105318;1263;67779;-64
2023/07/29 06:59:27;;;;;;;;;;;;;;;30.87;63.12;99385.69;104904;1264;71238;-64
2023/07/29 07:01:54;;;;;;;;;;;;;;;30.71;62.43;99386.85;105127;1263;61276;-68
2023/07/29 07:04:21;;;;;;;;;;;;;;;30.55;62.85;99391.80;105745;1259;61260;-66
2023/07/29 07:06:47;;;;;;;;;;;;;;;30.49;70.21;99391.16;105301;1260;75208;-65
2023/07/29 07:09:14;;;;;;;;;;;;;;;30.80;67.57;99391.10;105908;1263;67019;-65
2023/07/29 07:11:41;;;;;;;;;;;;;;;31.03;60.64;99390.50;105775;1263;71565;-65
2023/07/29 07:14:08;;;;;;;;;;;;;;;31.18;62.53;99390.22;105582;1264;61416;-67
2023/07/29 07:16:36;;;;;;;;;;;;;;;31.51;58.74;99391.13;105709;1262;61595;-66
2023/07/29 07:19:04;;;;;;;;;;;;;;;31.75;55.31;99396.30;105274;1263;66861;-65
2023/07/29 07:21:32;;;;;;;;;;;;;;;31.93;53.34;99396.25;105317;1259;67073;-64
2023/07/29 07:23:59;;;;;;;;;;;;;;;31.95;53.54;99393.91;105299;1263;73137;-65
2023/07/29 07:26:26;;;;;;;;;;;;;;;31.96;53.29;99393.03;105747;1258;61135;-64
2023/07/29 07:28:53;;;;;;;;;;;;;;;32.01;52.58;99392.98;104951;1263;60497;-65
2023/07/29 07:31:20;;;;;;;;;;;;;;;31.98;50.85;99393.07;105306;1262;66166;-63
2023/07/29 07:33:47;;;;;;;;;;;;;;;31.99;50.08;99391.64;105882;1260;67270;-63
2023/07/29 07:36:15;;;;;;;;;;;;;;;32.11;49.16;99393.55;104929;1263;64151;-62
2023/07/29 07:38:42;;;;;;;;;;;;;;;32.20;47.76;99391.54;105397;1262;61351;-66
2023/07/29 07:41:09;;;;;;;;;;;;;;;32.27;47.15;99393.30;104727;1261;61234;-63
2023/07/29 07:43:35;;;;;;;;;;;;;;;32.28;46.85;99396.34;104911;1263;66099;-64
2023/07/29 07:46:03;;;;;;;;;;;;;;;32.34;47.33;99396.27;104963;1260;67379;-65
2023/07/29 07:48:29;;;;;;;;;;;;;;;32.41;46.91;99399.89;105059;1262;62691;-64
2023/07/29 07:50:56;;;;;;;;;;;;;;;32.32;48.21;99398.59;104897;1259;61151;-63
2023/07/29 07:53:25;;;;;;;;;;;;;;;32.24;46.28;99406.27;104941;1260;61260;-63
2023/07/29 07:55:52;;;;;;;;;;;;;;;32.25;45.42;99405.83;105808;1263;74627;-64
2023/07/29 07:58:19;;;;;;;;;;;;;;;32.27;46.13;99398.46;105101;1263;67239;-64
2023/07/29 08:00:46;;;;;;;;;;;;;;;32.23;48.30;99403.16;105196;1263;64100;-63
2023/07/29 08:03:12;;;;;;;;;;;;;;;32.22;48.09;99409.21;104847;1258;61257;-61
2023/07/29 08:05:39;;;;;;;;;;;;;;;32.13;45.74;99415.17;105515;1260;61119;-64
2023/07/29 08:08:06;;;;;;;;;;;;;;;32.16;46.51;99409.46;105254;1261;74604;-61
2023/07/29 08:10:33;;;;;;;;;;;;;;;32.32;45.91;99406.75;105103;1260;67126;-61
2023/07/29 08:13:00;;;;;;;;;;;;;;;32.53;44.18;99411.20;105520;1263;62860;-64
2023/07/29 08:15:27;;;;;;;;;;;;;;;32.62;41.98;99407.88;105392;1261;61241;-64
2023/07/29 08:17:54;;;;;;;;;;;;;;;32.47;41.29;99408.59;105323;1263;61142;-63
2023/07/29 08:20:21;;;;;;;;;;;;;;;32.30;43.49;99407.48;105329;1261;74385;-62
2023/07/29 08:22:48;;;;;;;;;;;;;;;32.26;44.41;99406.85;105591;1261;61224;-62
2023/07/29 08:25:15;;;;;;;;;;;;;;;32.32;47.89;99411.30;105263;1263;73715;-63
2023/07/29 08:27:41;;;;;;;;;;;;;;;32.62;44.18;99411.25;105592;1261;61916;-62
2023/07/29 08:30:08;;;;;;;;;;;;;;;32.89;41.37;99412.08;105336;1258;61339;-62
2023/07/29 08:32:35;;;;;;;;;;;;;;;32.99;39.30;99408.85;105286;1260;64978;-63
2023/07/29 08:35:03;;;;;;;;;;;;;;;32.93;38.89;99406.77;105601;1261;61233;-65
2023/07/29 08:37:31;;;;;;;;;;;;;;;32.88;40.15;99404.11;105901;1266;64953;-65
2023/07/29 08:40:03;;;;;;;;;;;;;;;32.89;40.90;99403.14;105537;1260;61271;-62
2023/07/29 08:42:31;;;;;;;;;;;;;;;32.88;40.98;99403.88;105248;1263;61346;-62
2023/07/29 08:45:00;;;;;;;;;;;;;;;32.65;41.18;99406.32;105380;1263;66114;-62
2023/07/29 08:47:27;;;;;;;;;;;;;;;32.25;42.60;99411.15;105594;1261;61279;-63
2023/07/29 08:49:54;;;;;;;;;;;;;;;31.91;45.16;99410.76;105712;1263;73108;-64
2023/07/29 08:52:21;;;;;;;;;;;;;;;31.89;43.37;99412.24;105177;1260;61196;-63
2023/07/29 08:54:48;;;;;;;;;;;;;;;31.97;42.45;99404.05;105223;1260;61212;-61
2023/07/29 08:57:14;;;;;;;;;;;;;;;32.07;42.84;99404.25;105127;1259;74531;-64
2023/07/29 08:59:41;;;;;;;;;;;;;;;32.26;44.35;99410.39;105265;1264;67720;-63
2023/07/29 09:02:08;;;;;;;;;;;;;;;32.57;44.23;99407.97;105430;1263;62892;-62
2023/07/29 09:04:35;;;;;;;;;;;;;;;32.71;39.22;99401.52;105198;1260;61308;-61
2023/07/29 09:07:02;;;;;;;;;;;;;;;32.58;40.77;99399.07;105212;1260;61255;-61
2023/07/29 09:09:29;;;;;;;;;;;;;;;32.36;39.85;99399.77;105050;1262;74107;-62
2023/07/29 09:11:57;;;;;;;;;;;;;;;32.03;39.98;99409.60;105403;1260;67705;-62
2023/07/29 09:14:24;;;;;;;;;;;;;;;31.77;39.81;99413.54;105165;1261;72581;-62
2023/07/29 09:16:51;;;;;;;;;;;;;;;31.74;39.83;99408.61;105343;1261;61203;-61
2023/07/29 09:19:17;;;;;;;;;;;;;;;31.86;39.86;99407.31;105549;1260;61228;-63
2023/07/29 09:21:45;;;;;;;;;;;;;;;31.87;39.75;99406.42;105085;1262;66042;-63
2023/07/29 09:24:12;;;;;;;;;;;;;;;31.71;40.09;99410.92;105287;1258;66247;-61
2023/07/29 09:26:40;;;;;;;;;;;;;;;31.62;42.41;99412.16;105367;1258;72699;-61
2023/07/29 09:29:07;;;;;;;;;;;;;;;31.86;41.92;99412.16;105372;1265;61129;-64
2023/07/29 09:31:34;;;;;;;;;;;;;;;32.18;37.61;99409.80;105785;1261;61154;-64
2023/07/29 09:34:01;;;;;;;;;;;;;;;32.39;36.58;99407.09;105873;1260;65637;-62
2023/07/29 09:36:30;;;;;;;;;;;;;;;32.67;36.93;99407.96;105519;1261;66139;-62
2023/07/29 09:38:57;;;;;;;;;;;;;;;32.94;35.54;99404.35;105319;1263;62965;-61
2023/07/29 09:41:27;;;;;;;;;;;;;;;33.01;35.09;99403.80;105200;1260;61238;-64
2023/07/29 09:43:57;;;;;;;;;;;;;;;32.98;35.33;99404.58;105787;1259;61197;-62
2023/07/29 09:46:27;;;;;;;;;;;;;;;33.00;34.86;99406.77;105242;1260;65994;-61
2023/07/29 09:48:55;;;;;;;;;;;;;;;32.99;34.72;99403.83;105001;1264;59635;-61
2023/07/29 09:51:22;;;;;;;;;;;;;;;33.00;35.29;99407.33;105534;1260;64625;-65
2023/07/29 09:53:49;;;;;;;;;;;;;;;33.02;34.51;99409.69;105833;1262;60925;-61
2023/07/29 09:56:16;;;;;;;;;;;;;;;32.97;34.02;99412.58;105219;1260;61356;-62
2023/07/29 09:58:45;;;;;;;;;;;;;;;32.84;33.33;99415.99;105752;1259;65957;-62
2023/07/29 10:01:12;;;;;;;;;;;;;;;32.55;33.83;99412.33;105365;1263;66323;-63
2023/07/29 10:03:39;;;;;;;;;;;;;;;32.26;35.30;99417.16;105208;1261;63770;-62
2023/07/29 10:06:06;;;;;;;;;;;;;;;32.01;35.98;99417.41;105383;1265;61181;-63
2023/07/29 10:08:40;;;;;;;;;;;;;;;31.89;36.27;99420.34;105091;1262;61164;-62
2023/07/29 10:11:08;;;;;;;;;;;;;;;31.90;35.65;99414.20;105637;1259;74817;-63
2023/07/29 10:13:35;;;;;;;;;;;;;;;31.71;35.48;99411.14;105092;1260;61238;-62
2023/07/29 10:16:02;;;;;;;;;;;;;;;31.42;36.94;99418.05;105333;1264;65684;-61
2023/07/29 10:18:29;;;;;;;;;;;;;;;31.32;38.40;99417.31;105357;1260;61321;-61
2023/07/29 10:20:57;;;;;;;;;;;;;;;31.41;38.05;99420.04;105347;1261;61356;-62
2023/07/29 10:23:24;;;;;;;;;;;;;;;31.50;36.48;99422.22;105562;1259;64720;-64
2023/07/29 10:26:04;;;;;;;;;;;;;;;31.56;34.96;99425.83;105336;1259;67180;-61
2023/07/29 10:28:31;;;;;;;;;;;;;;;31.63;35.17;99424.71;105180;1260;62844;-61
2023/07/29 10:30:58;;;;;;;;;;;;;;;31.86;35.57;99428.58;105673;1260;61301;-65
2023/07/29 10:33:25;;;;;;;;;;;;;;;32.11;35.31;99425.59;105810;1263;61281;-63
2023/07/29 10:35:53;;;;;;;;;;;;;;;32.34;34.40;99423.86;105631;1259;64772;-61
2023/07/29 10:38:24;;;;;;;;;;;;;;;32.40;33.47;99422.63;105381;1260;61333;-64
2023/07/29 10:40:55;;;;;;;;;;;;;;;32.35;33.25;99423.40;105577;1260;71866;-63
2023/07/29 10:43:26;;;;;;;;;;;;;;;32.29;32.41;99427.41;106038;1260;61379;-65
2023/07/29 10:45:53;;;;;;;;;;;;;;;32.11;33.14;99429.83;105238;1258;61257;-63
2023/07/29 10:48:40;;;;;;;;;;;;;;;31.95;33.61;99421.26;105866;1259;66042;-64
2023/07/29 10:51:36;;;;;;;;;;;;;;;31.92;34.17;99417.50;105553;1259;67487;-65
2023/07/29 10:54:05;;;;;;;;;;;;;;;31.96;33.78;99420.20;105723;1260;62872;-63
2023/07/29 10:56:33;;;;;;;;;;;;;;;31.85;34.36;99429.70;105907;1259;60526;-65
2023/07/29 10:59:02;;;;;;;;;;;;;;;31.84;34.73;99428.58;105399;1263;61289;-63
2023/07/29 11:01:30;;;;;;;;;;;;;;;31.92;34.02;99430.95;105231;1259;73533;-61
2023/07/29 11:04:16;;;;;;;;;;;;;;;31.97;33.82;99437.48;105359;1260;66057;-62
2023/07/29 11:07:26;;;;;;;;;;;;;;;31.99;34.20;99442.39;104951;1260;64157;-63
2023/07/29 11:09:59;;;;;;;;;;;;;;;31.93;34.55;99442.85;104972;1269;62126;-64
2023/07/29 11:12:38;;;;;;;;;;;;;;;31.76;35.36;99440.55;104496;1265;61369;-61
2023/07/29 11:15:15;;;;;;;;;;;;;;;31.73;35.52;99435.53;105034;1263;66200;-60
2023/07/29 11:17:42;;;;;;;;;;;;;;;31.66;33.83;99428.80;105037;1263;66125;-60
2023/07/29 11:20:10;;;;;;;;;;;;;;;31.48;35.22;99433.98;105127;1260;73294;-60
2023/07/29 11:22:37;;;;;;;;;;;;;;;31.47;34.15;99440.52;105757;1259;61251;-63
2023/07/29 11:25:05;;;;;;;;;;;;;;;31.45;33.78;99437.00;105815;1259;61739;-62
2023/07/29 11:27:32;;;;;;;;;;;;;;;31.37;34.77;99440.25;105803;1259;66197;-64
2023/07/29 11:30:06;;;;;;;;;;;;;;;31.42;34.59;99437.45;105465;1262;65939;-65
2023/07/29 11:32:34;;;;;;;;;;;;;;;31.54;34.98;99431.77;105443;1263;72672;-61
2023/07/29 11:35:04;;;;;;;;;;;;;;;31.64;34.24;99420.59;105083;1260;62868;-63
2023/07/29 11:37:31;;;;;;;;;;;;;;;31.65;34.03;99426.92;105514;1259;61313;-63
2023/07/29 11:39:58;;;;;;;;;;;;;;;31.58;33.86;99426.33;105132;1262;74575;-66
2023/07/29 11:42:25;;;;;;;;;;;;;;;31.45;33.98;99428.71;104931;1260;67838;-63
2023/07/29 11:44:51;;;;;;;;;;;;;;;31.34;34.06;99433.30;105122;1261;73140;-61
2023/07/29 11:47:18;;;;;;;;;;;;;;;31.10;34.37;99430.76;105694;1259;60385;-63
2023/07/29 11:49:45;;;;;;;;;;;;;;;30.81;34.85;99434.48;104953;1262;61250;-61
2023/07/29 11:52:12;;;;;;;;;;;;;;;30.59;36.09;99435.02;105200;1259;74748;-63
2023/07/29 11:54:39;;;;;;;;;;;;;;;30.52;37.27;99435.04;104799;1260;61381;-61
2023/07/29 11:57:06;;;;;;;;;;;;;;;30.57;38.95;99430.52;105172;1259;71992;-64
2023/07/29 11:59:34;;;;;;;;;;;;;;;30.71;38.67;99435.96;104880;1260;61349;-61
2023/07/29 12:02:02;;;;;;;;;;;;;;;30.86;38.15;99435.18;104995;1262;61101;-61
2023/07/29 12:04:29;;;;;;;;;;;;;;;31.00;38.60;99439.85;105300;1259;66162;-63
2023/07/29 12:06:57;;;;;;;;;;;;;;;31.18;37.55;99438.91;105037;1260;65964;-62
2023/07/29 12:09:24;;;;;;;;;;;;;;;31.27;36.94;99436.14;104819;1262;62913;-62
2023/07/29 12:11:52;;;;;;;;;;;;;;;31.34;38.35;99434.82;104555;1260;61440;-62
2023/07/29 12:14:19;;;;;;;;;;;;;;;31.45;37.18;99435.00;105393;1259;61221;-61
2023/07/29 12:16:47;;;;;;;;;;;;;;;31.37;36.40;99437.39;105155;1260;64851;-63
2023/07/29 12:19:14;;;;;;;;;;;;;;;31.09;37.14;99440.95;105196;1262;66446;-64
2023/07/29 12:21:41;;;;;;;;;;;;;;;30.93;36.81;99443.17;104996;1260;72493;-62
2023/07/29 12:24:08;;;;;;;;;;;;;;;30.92;38.15;99435.45;104975;1263;61172;-62
2023/07/29 12:26:35;;;;;;;;;;;;;;;30.98;37.79;99443.27;105075;1260;61340;-65
2023/07/29 12:29:15;;;;;;;;;;;;;;;31.02;36.55;99435.44;105269;1260;66600;-63
2023/07/29 12:31:42;;;;;;;;;;;;;;;31.04;37.20;99440.89;105271;1259;61622;-61
2023/07/29 12:34:09;;;;;;;;;;;;;;;31.12;38.17;99434.80;105499;1259;73091;-62
2023/07/29 12:36:48;;;;;;;;;;;;;;;31.17;38.65;99440.35;104923;1259;61176;-63